createdAt,value
2023-02-12T00:01:51.850Z,1.22
2023-02-12T00:04:18.447Z,0.71
2023-02-12T00:06:44.871Z,1.14
2023-02-12T00:09:11.337Z,0.96
2023-02-12T00:11:37.863Z,0.98
2023-02-12T00:14:05.598Z,1.18
2023-02-12T00:16:32.147Z,1.25
2023-02-12T00:18:59.292Z,1.33
2023-02-12T00:21:25.898Z,1.27
2023-02-12T00:23:52.384Z,1.12
2023-02-12T00:26:19.717Z,1.26
2023-02-12T00:28:49.157Z,1.28
2023-02-12T00:31:18.012Z,1.27
2023-02-12T00:33:45.034Z,1.08
2023-02-12T00:36:23.843Z,1.15
2023-02-12T00:38:52.024Z,1.17
2023-02-12T00:41:19.241Z,1.09
2023-02-12T00:43:45.791Z,0.96
2023-02-12T00:46:12.305Z,1.01
2023-02-12T00:48:39.145Z,1.12
2023-02-12T00:51:06.029Z,1.17
2023-02-12T00:53:32.908Z,1.07
2023-02-12T00:55:59.452Z,1.13
2023-02-12T00:58:25.972Z,1.26
2023-02-12T01:00:53.285Z,1.17
2023-02-12T01:03:20.130Z,1.10
2023-02-12T01:05:47.025Z,1.13
2023-02-12T01:08:14.358Z,1.14
2023-02-12T01:10:41.359Z,1.13
2023-02-12T01:13:14.047Z,1.14
2023-02-12T01:15:41.345Z,1.27
2023-02-12T01:18:08.325Z,1.31
2023-02-12T01:20:34.901Z,1.24
2023-02-12T01:23:01.657Z,1.30
2023-02-12T01:25:28.133Z,1.28
2023-02-12T01:27:55.257Z,1.45
2023-02-12T01:30:24.136Z,1.58
2023-02-12T01:32:51.290Z,1.76
2023-02-12T01:35:17.868Z,2.13
2023-02-12T01:37:44.517Z,1.94
2023-02-12T01:40:19.501Z,1.78
2023-02-12T01:42:46.102Z,1.59
2023-02-12T01:45:12.675Z,1.46
2023-02-12T01:47:40.432Z,1.47
2023-02-12T01:50:07.906Z,1.70
2023-02-12T01:52:36.315Z,1.82
2023-02-12T01:55:04.328Z,1.39
2023-02-12T01:57:32.108Z,1.36
2023-02-12T02:00:00.500Z,1.77
2023-02-12T02:02:27.632Z,1.53
2023-02-12T02:04:56.284Z,1.81
2023-02-12T02:07:22.785Z,1.98
2023-02-12T02:09:49.877Z,1.69
2023-02-12T02:12:35.102Z,1.87
2023-02-12T02:15:02.286Z,1.85
2023-02-12T02:17:45.256Z,1.79
2023-02-12T02:20:30.868Z,1.81
2023-02-12T02:23:15.647Z,1.73
2023-02-12T02:26:09.820Z,1.69
2023-02-12T02:28:39.386Z,2.01
2023-02-12T02:31:27.390Z,2.11
2023-02-12T02:33:56.468Z,1.82
2023-02-12T02:36:41.427Z,2.00
2023-02-12T02:39:27.108Z,2.02
2023-02-12T02:41:53.549Z,1.80
2023-02-12T02:44:23.470Z,1.77
2023-02-12T02:46:51.679Z,1.76
2023-02-12T02:49:22.869Z,1.71
2023-02-12T02:51:51.072Z,1.63
2023-02-12T02:54:17.531Z,1.69
2023-02-12T02:56:45.994Z,1.69
2023-02-12T02:59:29.153Z,1.68
2023-02-12T03:02:04.856Z,1.72
2023-02-12T03:04:34.401Z,1.82
2023-02-12T03:07:05.181Z,1.59
2023-02-12T03:09:46.946Z,1.61
2023-02-12T03:12:15.323Z,1.44
2023-02-12T03:14:47.449Z,1.59
2023-02-12T03:17:16.988Z,1.58
2023-02-12T03:19:46.714Z,1.35
2023-02-12T03:22:16.518Z,1.35
2023-02-12T03:24:46.306Z,1.32
2023-02-12T03:27:24.936Z,1.29
2023-02-12T03:29:51.844Z,1.13
2023-02-12T03:32:29.404Z,1.03
2023-02-12T03:34:55.871Z,1.32
2023-02-12T03:37:29.268Z,1.29
2023-02-12T03:40:04.967Z,1.22
2023-02-12T03:42:34.265Z,1.25
2023-02-12T03:45:16.016Z,1.55
2023-02-12T03:47:59.963Z,1.51
2023-02-12T03:50:35.558Z,1.53
2023-02-12T03:53:02.452Z,1.66
2023-02-12T03:55:30.130Z,1.21
2023-02-12T03:58:00.836Z,1.07
2023-02-12T04:00:27.674Z,1.10
2023-02-12T04:02:54.443Z,0.93
2023-02-12T04:05:22.071Z,0.83
2023-02-12T04:07:49.368Z,0.97
2023-02-12T04:10:16.346Z,0.67
2023-02-12T04:12:51.769Z,0.58
2023-02-12T04:15:26.203Z,0.55
2023-02-12T04:18:16.125Z,0.55
2023-02-12T04:20:54.983Z,0.57
2023-02-12T04:23:35.407Z,0.74
2023-02-12T04:26:02.393Z,0.42
2023-02-12T04:28:49.171Z,0.13
2023-02-12T04:31:18.683Z,0.20
2023-02-12T04:33:48.771Z,0.14
2023-02-12T04:36:23.122Z,0.04
2023-02-12T04:38:58.651Z,-0.03
2023-02-12T04:41:25.931Z,0.37
2023-02-12T04:43:52.442Z,0.27
2023-02-12T04:46:19.015Z,0.24
2023-02-12T04:48:57.905Z,0.27
2023-02-12T04:51:24.399Z,0.02
2023-02-12T04:53:51.079Z,-0.15
2023-02-12T04:56:17.782Z,-0.51
2023-02-12T04:58:44.336Z,-0.57
2023-02-12T05:01:10.947Z,-0.51
2023-02-12T05:03:37.808Z,-0.42
2023-02-12T05:06:08.494Z,-0.51
2023-02-12T05:08:34.989Z,-0.43
2023-02-12T05:11:06.216Z,-0.58
2023-02-12T05:13:32.844Z,-0.71
2023-02-12T05:15:59.579Z,-0.79
2023-02-12T05:18:26.213Z,-0.95
2023-02-12T05:20:59.536Z,-0.67
2023-02-12T05:23:27.601Z,-0.75
2023-02-12T05:25:54.401Z,-0.80
2023-02-12T05:28:21.087Z,-0.78
2023-02-12T05:30:47.738Z,-0.54
2023-02-12T05:33:14.260Z,-0.62
2023-02-12T05:35:40.754Z,-0.70
2023-02-12T05:38:07.338Z,-0.56
2023-02-12T05:40:34.582Z,-0.52
2023-02-12T05:43:01.162Z,-0.43
2023-02-12T05:45:29.197Z,-0.20
2023-02-12T05:47:55.853Z,-0.25
2023-02-12T05:50:22.397Z,-0.23
2023-02-12T05:53:01.787Z,-0.24
2023-02-12T05:55:28.609Z,-0.21
2023-02-12T05:57:55.111Z,-0.23
2023-02-12T06:00:21.852Z,-0.13
2023-02-12T06:02:48.346Z,0.42
2023-02-12T06:05:14.828Z,1.24
2023-02-12T06:07:41.359Z,0.26
2023-02-12T06:10:08.295Z,-0.18
2023-02-12T06:12:34.770Z,0.12
2023-02-12T06:15:01.211Z,0.23
2023-02-12T06:17:27.639Z,0.11
2023-02-12T06:19:54.100Z,0.04
2023-02-12T06:22:20.545Z,0.05
2023-02-12T06:24:46.987Z,0.30
2023-02-12T06:27:13.496Z,0.60
2023-02-12T06:29:40.120Z,1.85
2023-02-12T06:32:08.477Z,1.30
2023-02-12T06:34:35.037Z,0.91
2023-02-12T06:37:01.501Z,0.91
2023-02-12T06:39:28.176Z,0.62
2023-02-12T06:41:54.717Z,0.87
2023-02-12T06:44:21.278Z,0.60
2023-02-12T06:46:47.825Z,0.67
2023-02-12T06:49:15.031Z,0.72
2023-02-12T06:51:41.560Z,0.91
2023-02-12T06:54:14.877Z,1.14
2023-02-12T06:56:41.438Z,1.32
2023-02-12T06:59:07.942Z,1.59
2023-02-12T07:01:34.432Z,1.64
2023-02-12T07:04:04.932Z,1.59
2023-02-12T07:06:33.413Z,1.79
2023-02-12T07:09:00.097Z,1.71
2023-02-12T07:11:27.836Z,1.78
2023-02-12T07:13:54.336Z,1.87
2023-02-12T07:16:21.294Z,1.99
2023-02-12T07:18:48.270Z,1.96
2023-02-12T07:21:15.474Z,2.12
2023-02-12T07:23:42.525Z,2.29
2023-02-12T07:26:11.368Z,2.27
2023-02-12T07:28:38.244Z,2.45
2023-02-12T07:31:11.603Z,2.55
2023-02-12T07:33:38.889Z,2.67
2023-02-12T07:36:06.672Z,2.78
2023-02-12T07:38:35.980Z,2.79
2023-02-12T07:41:10.162Z,2.83
2023-02-12T07:43:37.105Z,3.35
2023-02-12T07:46:07.747Z,3.25
2023-02-12T07:48:34.228Z,3.70
2023-02-12T07:51:08.221Z,4.11
2023-02-12T07:53:35.337Z,4.57
2023-02-12T07:56:05.478Z,4.63
2023-02-12T07:58:31.918Z,5.37
2023-02-12T08:00:58.389Z,5.57
2023-02-12T08:03:24.829Z,5.50
2023-02-12T08:05:51.273Z,5.45
2023-02-12T08:08:17.773Z,6.20
2023-02-12T08:10:44.187Z,6.22
2023-02-12T08:13:10.670Z,7.12
2023-02-12T08:15:37.169Z,6.34
2023-02-12T08:18:03.626Z,6.11
2023-02-12T08:20:30.121Z,7.11
2023-02-12T08:22:56.557Z,7.58
2023-02-12T08:25:23.015Z,7.95
2023-02-12T08:27:49.439Z,8.70
2023-02-12T08:30:16.068Z,8.67
2023-02-12T08:32:42.500Z,7.17
2023-02-12T08:35:08.929Z,7.68
2023-02-12T08:37:35.379Z,7.71
2023-02-12T08:40:01.808Z,7.72
2023-02-12T08:42:28.235Z,7.77
2023-02-12T08:44:54.713Z,8.55
2023-02-12T08:47:21.171Z,8.53
2023-02-12T08:49:47.664Z,9.20
2023-02-12T08:52:14.116Z,10.13
2023-02-12T08:54:40.601Z,10.77
2023-02-12T08:57:07.038Z,9.71
2023-02-12T08:59:33.528Z,10.02
2023-02-12T09:02:00.692Z,10.61
2023-02-12T09:04:28.252Z,9.40
2023-02-12T09:06:55.442Z,9.08
2023-02-12T09:09:22.051Z,8.82
2023-02-12T09:11:49.357Z,9.23
2023-02-12T09:14:16.844Z,9.86
2023-02-12T09:16:43.728Z,9.64
2023-02-12T09:19:11.996Z,10.25
2023-02-12T09:21:38.462Z,10.44
2023-02-12T09:24:04.998Z,10.10
2023-02-12T09:26:31.508Z,9.44
2023-02-12T09:28:57.997Z,9.79
2023-02-12T09:31:26.617Z,9.66
2023-02-12T09:33:55.360Z,9.11
2023-02-12T09:36:22.319Z,8.92
2023-02-12T09:38:49.664Z,8.94
2023-02-12T09:41:22.286Z,10.18
2023-02-12T09:43:53.595Z,10.94
2023-02-12T09:46:31.884Z,10.84
2023-02-12T09:49:01.538Z,11.27
2023-02-12T09:51:28.781Z,12.36
2023-02-12T09:54:06.387Z,12.50
2023-02-12T09:56:34.339Z,11.18
2023-02-12T09:59:02.857Z,12.75
2023-02-12T10:01:29.933Z,12.28
2023-02-12T10:03:56.767Z,13.41
2023-02-12T10:06:23.216Z,14.14
2023-02-12T10:08:59.274Z,14.27
2023-02-12T10:11:44.203Z,13.98
2023-02-12T10:14:16.577Z,13.99
2023-02-12T10:16:53.513Z,13.68
2023-02-12T10:19:32.232Z,16.14
2023-02-12T10:22:01.669Z,15.01
2023-02-12T10:24:37.265Z,14.13
2023-02-12T10:27:13.030Z,15.10
2023-02-12T10:29:42.365Z,15.28
2023-02-12T10:32:17.374Z,15.32
2023-02-12T10:34:43.947Z,14.62
2023-02-12T10:37:24.827Z,14.25
2023-02-12T10:39:55.075Z,14.79
2023-02-12T10:42:24.581Z,14.62
2023-02-12T10:44:51.041Z,13.99
2023-02-12T10:47:21.600Z,14.59
2023-02-12T10:50:01.759Z,15.56
2023-02-12T10:52:54.792Z,14.35
2023-02-12T10:55:28.925Z,12.89
2023-02-12T10:57:55.982Z,12.97
2023-02-12T11:00:36.309Z,13.17
2023-02-12T11:03:04.707Z,12.30
2023-02-12T11:05:33.769Z,11.40
2023-02-12T11:08:00.694Z,11.60
2023-02-12T11:10:28.627Z,12.36
2023-02-12T11:12:55.563Z,12.97
2023-02-12T11:15:26.317Z,13.19
2023-02-12T11:17:57.600Z,13.81
2023-02-12T11:20:38.440Z,14.28
2023-02-12T11:23:06.563Z,14.81
2023-02-12T11:25:34.642Z,14.41
2023-02-12T11:28:03.405Z,14.80
2023-02-12T11:30:30.028Z,14.21
2023-02-12T11:33:14.561Z,13.94
2023-02-12T11:35:48.993Z,14.87
2023-02-12T11:38:22.635Z,15.25
2023-02-12T11:40:49.960Z,16.10
2023-02-12T11:43:18.780Z,14.28
2023-02-12T11:45:52.091Z,13.44
2023-02-12T11:48:24.282Z,13.88
2023-02-12T11:50:52.269Z,13.52
2023-02-12T11:53:24.833Z,13.10
2023-02-12T11:55:58.769Z,13.67
2023-02-12T11:58:26.152Z,13.99
2023-02-12T12:00:52.547Z,14.14
2023-02-12T12:03:28.525Z,14.63
2023-02-12T12:05:58.821Z,13.95
2023-02-12T12:08:33.352Z,13.95
2023-02-12T12:11:11.376Z,13.81
2023-02-12T12:13:41.433Z,14.03
2023-02-12T12:16:58.980Z,12.95
2023-02-12T12:19:49.897Z,13.56
2023-02-12T12:22:22.986Z,13.98
2023-02-12T12:25:08.346Z,13.77
2023-02-12T12:28:05.435Z,13.94
2023-02-12T12:30:50.583Z,13.00
2023-02-12T12:33:26.375Z,12.97
2023-02-12T12:35:56.165Z,13.29
2023-02-12T12:38:45.059Z,13.25
2023-02-12T12:41:40.826Z,13.46
2023-02-12T12:44:22.292Z,13.94
2023-02-12T12:47:05.082Z,14.99
2023-02-12T12:49:32.163Z,15.09
2023-02-12T12:51:58.577Z,16.68
2023-02-12T12:54:35.804Z,16.32
2023-02-12T12:57:25.478Z,17.11
2023-02-12T12:59:51.947Z,17.89
2023-02-12T13:02:38.306Z,17.62
2023-02-12T13:05:07.678Z,17.84
2023-02-12T13:07:44.928Z,18.34
2023-02-12T13:10:20.678Z,18.64
2023-02-12T13:13:07.696Z,18.44
2023-02-12T13:15:41.119Z,17.86
2023-02-12T13:18:07.574Z,17.54
2023-02-12T13:20:42.739Z,17.37
2023-02-12T13:23:09.151Z,17.91
2023-02-12T13:25:40.385Z,18.71
2023-02-12T13:28:12.518Z,18.25
2023-02-12T13:30:44.594Z,18.28
2023-02-12T13:33:20.596Z,18.11
2023-02-12T13:35:49.732Z,17.93
2023-02-12T13:38:22.748Z,17.87
2023-02-12T13:40:49.857Z,17.99
2023-02-12T13:43:16.320Z,18.32
2023-02-12T13:45:42.719Z,17.28
2023-02-12T13:48:09.136Z,17.93
2023-02-12T13:50:48.177Z,16.51
2023-02-12T13:53:23.491Z,17.06
2023-02-12T13:56:06.928Z,17.65
2023-02-12T13:58:34.836Z,17.62
2023-02-12T14:01:02.386Z,17.54
2023-02-12T14:03:30.051Z,17.62
2023-02-12T14:06:08.780Z,17.67
2023-02-12T14:08:36.849Z,17.55
2023-02-12T14:11:17.698Z,17.62
2023-02-12T14:14:05.262Z,17.39
2023-02-12T14:16:31.721Z,16.93
2023-02-12T14:19:16.728Z,17.28
2023-02-12T14:21:43.361Z,17.27
2023-02-12T14:24:28.578Z,17.51
2023-02-12T14:26:55.394Z,17.33
2023-02-12T14:29:22.137Z,16.97
2023-02-12T14:31:48.642Z,16.59
2023-02-12T14:34:16.527Z,16.84
2023-02-12T14:36:44.816Z,16.96
2023-02-12T14:39:20.286Z,16.39
2023-02-12T14:41:47.389Z,16.58
2023-02-12T14:44:16.827Z,16.28
2023-02-12T14:46:52.624Z,16.52
2023-02-12T14:49:26.917Z,16.50
2023-02-12T14:52:07.523Z,16.06
2023-02-12T14:54:41.358Z,16.15
2023-02-12T14:57:09.624Z,15.32
2023-02-12T14:59:39.843Z,15.72
2023-02-12T15:02:06.780Z,15.60
2023-02-12T15:04:36.733Z,15.78
2023-02-12T15:07:12.979Z,15.30
2023-02-12T15:09:42.560Z,15.15
2023-02-12T15:12:32.679Z,14.84
2023-02-12T15:15:06.351Z,14.96
2023-02-12T15:17:34.919Z,14.98
2023-02-12T15:20:06.041Z,14.78
2023-02-12T15:22:42.142Z,14.86
2023-02-12T15:25:24.602Z,14.89
2023-02-12T15:28:14.104Z,14.66
2023-02-12T15:30:42.455Z,14.32
2023-02-12T15:33:09.086Z,14.00
2023-02-12T15:35:39.820Z,13.45
2023-02-12T15:38:10.754Z,12.69
2023-02-12T15:40:37.283Z,12.37
2023-02-12T15:43:05.648Z,12.18
2023-02-12T15:45:36.373Z,11.79
2023-02-12T15:48:08.878Z,11.59
2023-02-12T15:50:36.705Z,10.84
2023-02-12T15:53:03.621Z,11.07
2023-02-12T15:55:35.951Z,10.33
2023-02-12T15:58:02.478Z,10.22
2023-02-12T16:00:36.156Z,10.12
2023-02-12T16:03:02.607Z,9.17
2023-02-12T16:05:29.722Z,8.96
2023-02-12T16:07:56.431Z,8.67
2023-02-12T16:10:23.269Z,8.98
2023-02-12T16:12:50.460Z,8.68
2023-02-12T16:15:24.737Z,8.16
2023-02-12T16:17:51.279Z,7.83
2023-02-12T16:20:20.603Z,7.74
2023-02-12T16:22:48.275Z,7.53
2023-02-12T16:25:22.727Z,7.60
2023-02-12T16:27:53.666Z,7.72
2023-02-12T16:30:32.252Z,7.22
2023-02-12T16:32:59.057Z,6.88
2023-02-12T16:35:30.528Z,6.80
2023-02-12T16:38:02.912Z,6.89
2023-02-12T16:40:33.805Z,6.75
2023-02-12T16:43:03.965Z,6.67
2023-02-12T16:45:34.712Z,6.51
2023-02-12T16:48:16.282Z,6.71
2023-02-12T16:50:45.963Z,6.43
2023-02-12T16:53:31.648Z,6.24
2023-02-12T16:55:58.854Z,6.29
2023-02-12T16:58:28.636Z,6.12
2023-02-12T17:00:55.668Z,5.99
2023-02-12T17:03:22.527Z,5.95
2023-02-12T17:05:49.405Z,6.04
2023-02-12T17:08:17.764Z,5.92
2023-02-12T17:10:48.284Z,5.69
2023-02-12T17:13:14.903Z,5.58
2023-02-12T17:15:52.603Z,5.48
2023-02-12T17:18:19.661Z,5.72
2023-02-12T17:20:53.216Z,5.45
2023-02-12T17:23:19.801Z,5.23
2023-02-12T17:25:46.376Z,5.22
2023-02-12T17:28:13.014Z,5.14
2023-02-12T17:30:39.494Z,5.15
2023-02-12T17:33:05.992Z,5.13
2023-02-12T17:35:32.458Z,5.08
2023-02-12T17:37:59.212Z,4.95
2023-02-12T17:40:25.729Z,4.86
2023-02-12T17:42:52.152Z,4.86
2023-02-12T17:45:19.067Z,4.82
2023-02-12T17:47:45.622Z,4.70
2023-02-12T17:50:13.766Z,4.53
2023-02-12T17:52:40.421Z,4.72
2023-02-12T17:55:07.412Z,4.80
2023-02-12T17:57:34.114Z,4.84
2023-02-12T18:00:00.617Z,4.68
2023-02-12T18:02:27.138Z,4.67
2023-02-12T18:04:53.626Z,4.67
2023-02-12T18:07:20.119Z,4.63
2023-02-12T18:09:46.557Z,4.64
2023-02-12T18:12:13.019Z,4.48
2023-02-12T18:14:39.640Z,4.45
2023-02-12T18:17:06.126Z,4.39
2023-02-12T18:19:32.701Z,4.38
2023-02-12T18:21:59.207Z,4.17
2023-02-12T18:24:25.687Z,4.00
2023-02-12T18:26:52.335Z,4.15
2023-02-12T18:29:18.900Z,3.84
2023-02-12T18:31:45.561Z,3.85
2023-02-12T18:34:12.075Z,3.81
2023-02-12T18:36:38.548Z,3.83
2023-02-12T18:39:04.999Z,3.79
2023-02-12T18:41:31.848Z,3.69
2023-02-12T18:43:58.699Z,3.50
2023-02-12T18:46:26.748Z,3.62
2023-02-12T18:48:53.992Z,3.70
2023-02-12T18:51:22.453Z,3.59
2023-02-12T18:53:54.144Z,3.54
2023-02-12T18:56:20.686Z,3.34
2023-02-12T18:58:47.122Z,3.40
2023-02-12T19:01:14.954Z,3.10
2023-02-12T19:03:41.522Z,3.25
2023-02-12T19:06:08.088Z,3.43
2023-02-12T19:08:34.704Z,3.44
2023-02-12T19:11:01.189Z,3.61
2023-02-12T19:13:27.732Z,3.29
2023-02-12T19:15:54.547Z,3.43
2023-02-12T19:18:21.068Z,3.39
2023-02-12T19:20:47.544Z,3.55
2023-02-12T19:23:13.999Z,3.61
2023-02-12T19:25:42.953Z,3.64
2023-02-12T19:28:10.097Z,3.67
2023-02-12T19:30:37.101Z,3.78
2023-02-12T19:33:03.749Z,3.57
2023-02-12T19:35:30.163Z,3.69
2023-02-12T19:37:56.634Z,3.52
2023-02-12T19:40:23.145Z,3.53
2023-02-12T19:42:49.677Z,3.25
2023-02-12T19:45:16.248Z,3.30
2023-02-12T19:47:42.810Z,3.35
2023-02-12T19:50:09.548Z,3.10
2023-02-12T19:52:36.380Z,2.86
2023-02-12T19:55:03.009Z,2.91
2023-02-12T19:57:29.510Z,2.74
2023-02-12T19:59:55.943Z,2.55
2023-02-12T20:02:22.688Z,2.67
2023-02-12T20:04:49.165Z,2.43
2023-02-12T20:07:15.600Z,2.41
2023-02-12T20:09:42.152Z,2.53
2023-02-12T20:12:08.633Z,2.40
2023-02-12T20:14:35.605Z,2.31
2023-02-12T20:17:02.130Z,2.33
2023-02-12T20:19:29.960Z,2.14
2023-02-12T20:21:57.634Z,2.18
2023-02-12T20:24:25.676Z,2.24
2023-02-12T20:26:52.449Z,1.99
2023-02-12T20:29:18.991Z,2.17
2023-02-12T20:31:45.697Z,2.08
2023-02-12T20:34:14.808Z,2.13
2023-02-12T20:36:42.560Z,2.05
2023-02-12T20:39:10.602Z,1.90
2023-02-12T20:41:37.371Z,1.98
2023-02-12T20:44:08.348Z,1.94
2023-02-12T20:46:39.462Z,1.82
2023-02-12T20:49:06.382Z,1.71
2023-02-12T20:51:33.181Z,1.87
2023-02-12T20:54:01.141Z,1.73
2023-02-12T20:56:28.955Z,1.35
2023-02-12T20:58:55.668Z,1.38
2023-02-12T21:01:26.599Z,1.49
2023-02-12T21:03:53.702Z,1.34
2023-02-12T21:06:20.839Z,1.50
2023-02-12T21:08:47.697Z,1.33
2023-02-12T21:11:16.266Z,1.35
2023-02-12T21:13:50.422Z,1.63
2023-02-12T21:16:25.600Z,1.59
2023-02-12T21:18:52.540Z,1.58
2023-02-12T21:21:21.478Z,1.45
2023-02-12T21:23:48.651Z,1.37
2023-02-12T21:26:18.346Z,1.13
2023-02-12T21:28:45.534Z,1.07
2023-02-12T21:31:13.418Z,1.20
2023-02-12T21:33:40.690Z,1.15
2023-02-12T21:36:08.663Z,0.91
2023-02-12T21:38:37.859Z,0.76
2023-02-12T21:41:08.476Z,0.87
2023-02-12T21:43:35.580Z,0.69
2023-02-12T21:46:02.253Z,0.76
2023-02-12T21:48:28.912Z,0.56
2023-02-12T21:50:55.791Z,0.71
2023-02-12T21:53:22.578Z,0.50
2023-02-12T21:55:49.306Z,0.58
2023-02-12T21:58:16.143Z,0.72
2023-02-12T22:00:42.721Z,0.57
2023-02-12T22:03:09.256Z,0.70
2023-02-12T22:05:35.688Z,0.57
2023-02-12T22:08:02.209Z,0.49
2023-02-12T22:10:28.711Z,0.62
2023-02-12T22:12:55.249Z,0.34
2023-02-12T22:15:22.004Z,0.34
2023-02-12T22:17:48.488Z,0.13
2023-02-12T22:20:14.988Z,0.17
2023-02-12T22:22:41.477Z,0.25
2023-02-12T22:25:08.181Z,0.16
2023-02-12T22:27:34.824Z,0.04
2023-02-12T22:30:01.359Z,0.21
2023-02-12T22:32:27.916Z,0.03
2023-02-12T22:34:54.521Z,0.11
2023-02-12T22:37:21.265Z,0.04
2023-02-12T22:39:47.741Z,0.12
2023-02-12T22:42:14.516Z,0.12
2023-02-12T22:44:40.956Z,0.11
2023-02-12T22:47:07.414Z,-0.01
2023-02-12T22:49:33.859Z,0.06
2023-02-12T22:52:00.432Z,-0.06
2023-02-12T22:54:26.923Z,0.20
2023-02-12T22:56:53.389Z,0.04
2023-02-12T22:59:19.829Z,0.04
2023-02-12T23:01:46.302Z,-0.20
2023-02-12T23:04:16.797Z,-0.30
2023-02-12T23:06:43.437Z,-0.08
2023-02-12T23:09:12.076Z,-0.02
2023-02-12T23:11:39.419Z,-0.18
2023-02-12T23:14:05.996Z,-0.13
2023-02-12T23:16:32.570Z,-0.31
2023-02-12T23:19:00.415Z,-0.61
2023-02-12T23:21:28.116Z,-0.47
2023-02-12T23:23:55.135Z,-0.54
2023-02-12T23:26:21.777Z,-0.48
2023-02-12T23:28:48.561Z,-0.44
2023-02-12T23:31:15.124Z,-0.43
2023-02-12T23:33:41.652Z,-0.57
2023-02-12T23:36:08.320Z,-0.67
2023-02-12T23:38:34.784Z,-0.36
2023-02-12T23:41:01.284Z,-0.44
2023-02-12T23:43:27.797Z,-0.47
2023-02-12T23:45:54.372Z,-0.58
2023-02-12T23:48:20.859Z,-0.57
2023-02-12T23:50:49.706Z,-0.48
2023-02-12T23:53:17.702Z,-0.55
2023-02-12T23:55:44.361Z,-0.48
2023-02-12T23:58:10.923Z,-0.62
